Aérodrome :
LOGIN :

S'inscrire | Disclaimer

   EN    FR    IT 

 










Légende :    VFR   VFR Marginal   IFR   IFR Intensif   IFR Très Intensif
Visi : 
Plafond : 
>= 8 km
>= 3000ft
5 à 8 km
1000 à 3000 ft
1500m à 5 km
500 à 1000 ft
800 à 1500m
200 à 500 ft
< 800m
< 200 ft
Symboles :   Orages  Brouillard  Fortes neiges  Fortes précipitations  Vent > 20 kt
SIGMETs :   Divers  Orages  Givrage  Turbulence  Onde Orograph.  Cendres Volcan.






- Altitude de l'aérodrome : 646 ft
- Code IATA : VNO


EYVI - Vilnius int.

DERNIER METAR :
  • 251250Z 16011KT 4700 -SNRA OVC004 01/00 Q0995 RERASN R19/2///95 TEMPO 3000 SNRA BR

METARs EXPIRÉS :
  • 251220Z 15010KT 3700 SNRA OVC004 01/00 Q0996 R19/2///95 TEMPO 3000 SNRA BR
  • 251150Z 16010KT 7000 -RASN OVC004 01/01 Q0996 R19/2///95 NOSIG
  • 251120Z 15009KT 2400 SNRA OVC003 00/00 Q0997 R19/2///95 TEMPO 1500 SNRA OVC002
  • 251050Z 14009KT 1600 R19/1300VP2000U SNRA OVC005 00/M00 Q0997 R19/2///95 TEMPO 1500 SNRA OVC002
  • 251020Z 16010KT 2700 SNRA BR OVC006 00/M00 Q0998 R19/2///95 TEMPO 1500 SNRA OVC005

TAF COR TAF EYVI
Valide du 25 à 12h jusqu'au 26 à 12h UTC


251210Z 2512/2612 18012KT 3000 BR OVC005
TEMPO 2512/2515 0800 +SNRA OVC002
TEMPO 2515/2524 0500 DZ FG OVC002
BECMG 2600/2601 6000 SCT005
TEMPO 2601/2606 3000 BR BKN005
BECMG 2606/2608 SCT015



MET'MAP, la Météo Aéronautique d'un coup d'oeil ! - Copyright ORBIFLY Décembre 2007 - Disclaimer

ORBIFLY MET'MAP TEAM :

Programmation & Développement : Alexandra Zaïnal
Sur une idée originale de : Baudouin d'Aumeries
Assistance à la programmation : Marc-Olivier Méhu
Soutien technique & logistique : Manuel Goepfert

Contact : metmap@orbifly.com




SOURCES & CREDITS :

   NOAA